sensor_id;sensor_type;location;lat;lon;timestamp;P1;durP1;ratioP1;P2;durP2;ratioP2
74523;SDS011;63074;44.696;10.358;2022-12-29T00:02:21;81.60;;;30.83;;
74523;SDS011;63074;44.696;10.358;2022-12-29T00:04:49;82.15;;;31.95;;
74523;SDS011;63074;44.696;10.358;2022-12-29T00:07:16;73.07;;;30.35;;
74523;SDS011;63074;44.696;10.358;2022-12-29T00:09:43;74.22;;;32.47;;
74523;SDS011;63074;44.696;10.358;2022-12-29T00:12:09;73.97;;;32.17;;
74523;SDS011;63074;44.696;10.358;2022-12-29T00:14:36;79.00;;;33.22;;
74523;SDS011;63074;44.696;10.358;2022-12-29T00:17:21;69.97;;;31.85;;
74523;SDS011;63074;44.696;10.358;2022-12-29T00:19:48;74.40;;;30.75;;
74523;SDS011;63074;44.696;10.358;2022-12-29T00:22:53;77.93;;;32.60;;
74523;SDS011;63074;44.696;10.358;2022-12-29T00:25:38;80.32;;;32.22;;
74523;SDS011;63074;44.696;10.358;2022-12-29T00:28:22;77.07;;;32.90;;
74523;SDS011;63074;44.696;10.358;2022-12-29T00:31:07;82.57;;;33.70;;
74523;SDS011;63074;44.696;10.358;2022-12-29T00:33:59;81.15;;;33.42;;
74523;SDS011;63074;44.696;10.358;2022-12-29T00:36:43;81.38;;;31.73;;
74523;SDS011;63074;44.696;10.358;2022-12-29T00:39:11;77.03;;;31.73;;
74523;SDS011;63074;44.696;10.358;2022-12-29T00:42:07;83.57;;;31.95;;
74523;SDS011;63074;44.696;10.358;2022-12-29T00:44:52;77.55;;;31.08;;
74523;SDS011;63074;44.696;10.358;2022-12-29T00:47:18;79.80;;;30.25;;
74523;SDS011;63074;44.696;10.358;2022-12-29T00:49:45;72.70;;;30.90;;
74523;SDS011;63074;44.696;10.358;2022-12-29T00:52:12;80.07;;;34.10;;
74523;SDS011;63074;44.696;10.358;2022-12-29T00:54:39;72.07;;;32.72;;
74523;SDS011;63074;44.696;10.358;2022-12-29T00:57:09;76.18;;;33.97;;
74523;SDS011;63074;44.696;10.358;2022-12-29T00:59:38;77.18;;;32.30;;
74523;SDS011;63074;44.696;10.358;2022-12-29T01:02:05;78.03;;;33.38;;
74523;SDS011;63074;44.696;10.358;2022-12-29T01:04:32;76.90;;;33.20;;
74523;SDS011;63074;44.696;10.358;2022-12-29T01:06:58;79.53;;;32.80;;
74523;SDS011;63074;44.696;10.358;2022-12-29T01:09:26;77.05;;;33.00;;
74523;SDS011;63074;44.696;10.358;2022-12-29T01:12:12;81.13;;;34.80;;
74523;SDS011;63074;44.696;10.358;2022-12-29T01:14:38;85.72;;;32.63;;
74523;SDS011;63074;44.696;10.358;2022-12-29T01:17:05;74.82;;;32.72;;
74523;SDS011;63074;44.696;10.358;2022-12-29T01:19:32;83.80;;;34.75;;
74523;SDS011;63074;44.696;10.358;2022-12-29T01:21:58;80.82;;;33.28;;
74523;SDS011;63074;44.696;10.358;2022-12-29T01:24:24;78.15;;;31.80;;
74523;SDS011;63074;44.696;10.358;2022-12-29T01:26:51;73.68;;;34.88;;
74523;SDS011;63074;44.696;10.358;2022-12-29T01:29:19;77.43;;;34.00;;
74523;SDS011;63074;44.696;10.358;2022-12-29T01:31:45;81.72;;;33.78;;
74523;SDS011;63074;44.696;10.358;2022-12-29T01:34:11;76.00;;;32.58;;
74523;SDS011;63074;44.696;10.358;2022-12-29T01:36:38;79.72;;;34.58;;
74523;SDS011;63074;44.696;10.358;2022-12-29T01:39:04;70.93;;;31.25;;
74523;SDS011;63074;44.696;10.358;2022-12-29T01:41:30;75.63;;;33.20;;
74523;SDS011;63074;44.696;10.358;2022-12-29T01:43:57;77.18;;;34.97;;
74523;SDS011;63074;44.696;10.358;2022-12-29T01:46:41;72.63;;;31.75;;
74523;SDS011;63074;44.696;10.358;2022-12-29T01:49:19;67.05;;;30.60;;
74523;SDS011;63074;44.696;10.358;2022-12-29T01:51:55;70.45;;;30.83;;
74523;SDS011;63074;44.696;10.358;2022-12-29T01:54:38;70.07;;;31.20;;
74523;SDS011;63074;44.696;10.358;2022-12-29T01:57:15;69.60;;;31.65;;
74523;SDS011;63074;44.696;10.358;2022-12-29T02:00:30;68.18;;;29.65;;
74523;SDS011;63074;44.696;10.358;2022-12-29T02:02:36;75.88;;;31.05;;
74523;SDS011;63074;44.696;10.358;2022-12-29T02:05:09;72.60;;;30.85;;
74523;SDS011;63074;44.696;10.358;2022-12-29T02:07:39;68.22;;;30.48;;
74523;SDS011;63074;44.696;10.358;2022-12-29T02:10:06;66.07;;;30.98;;
74523;SDS011;63074;44.696;10.358;2022-12-29T02:12:33;77.05;;;30.75;;
74523;SDS011;63074;44.696;10.358;2022-12-29T02:15:01;73.55;;;31.38;;
74523;SDS011;63074;44.696;10.358;2022-12-29T02:17:51;73.63;;;32.13;;
74523;SDS011;63074;44.696;10.358;2022-12-29T02:34:00;71.03;;;32.10;;
74523;SDS011;63074;44.696;10.358;2022-12-29T02:42:40;71.57;;;31.15;;
74523;SDS011;63074;44.696;10.358;2022-12-29T02:48:05;72.88;;;29.52;;
74523;SDS011;63074;44.696;10.358;2022-12-29T02:50:35;76.93;;;32.08;;
74523;SDS011;63074;44.696;10.358;2022-12-29T02:53:06;77.32;;;32.80;;
74523;SDS011;63074;44.696;10.358;2022-12-29T02:55:36;77.90;;;31.88;;
74523;SDS011;63074;44.696;10.358;2022-12-29T03:01:07;84.97;;;36.33;;
74523;SDS011;63074;44.696;10.358;2022-12-29T03:09:58;74.40;;;33.92;;
74523;SDS011;63074;44.696;10.358;2022-12-29T03:19:00;73.95;;;32.90;;
74523;SDS011;63074;44.696;10.358;2022-12-29T03:24:43;75.07;;;31.67;;
74523;SDS011;63074;44.696;10.358;2022-12-29T03:27:19;73.13;;;33.42;;
74523;SDS011;63074;44.696;10.358;2022-12-29T03:29:51;73.57;;;28.90;;
74523;SDS011;63074;44.696;10.358;2022-12-29T03:32:23;79.55;;;33.60;;
74523;SDS011;63074;44.696;10.358;2022-12-29T03:34:56;78.10;;;35.33;;
74523;SDS011;63074;44.696;10.358;2022-12-29T03:37:25;74.43;;;32.45;;
74523;SDS011;63074;44.696;10.358;2022-12-29T03:40:00;79.47;;;34.90;;
74523;SDS011;63074;44.696;10.358;2022-12-29T03:42:31;72.28;;;34.70;;
74523;SDS011;63074;44.696;10.358;2022-12-29T03:45:00;74.90;;;32.20;;
74523;SDS011;63074;44.696;10.358;2022-12-29T03:47:26;75.32;;;33.50;;
74523;SDS011;63074;44.696;10.358;2022-12-29T03:49:52;71.28;;;33.65;;
74523;SDS011;63074;44.696;10.358;2022-12-29T03:52:19;77.90;;;35.72;;
74523;SDS011;63074;44.696;10.358;2022-12-29T03:54:46;81.32;;;33.72;;
74523;SDS011;63074;44.696;10.358;2022-12-29T03:57:12;78.60;;;32.60;;
74523;SDS011;63074;44.696;10.358;2022-12-29T03:59:38;73.90;;;34.20;;
74523;SDS011;63074;44.696;10.358;2022-12-29T04:02:04;80.70;;;35.92;;
74523;SDS011;63074;44.696;10.358;2022-12-29T04:04:30;88.85;;;38.05;;
74523;SDS011;63074;44.696;10.358;2022-12-29T04:06:56;72.25;;;33.97;;
74523;SDS011;63074;44.696;10.358;2022-12-29T04:09:23;88.47;;;34.45;;
74523;SDS011;63074;44.696;10.358;2022-12-29T04:11:49;77.88;;;34.05;;
74523;SDS011;63074;44.696;10.358;2022-12-29T04:14:15;84.80;;;34.95;;
74523;SDS011;63074;44.696;10.358;2022-12-29T04:16:41;82.53;;;33.67;;
74523;SDS011;63074;44.696;10.358;2022-12-29T04:19:08;79.20;;;32.55;;
74523;SDS011;63074;44.696;10.358;2022-12-29T04:21:34;83.88;;;33.45;;
74523;SDS011;63074;44.696;10.358;2022-12-29T04:24:00;75.88;;;34.10;;
74523;SDS011;63074;44.696;10.358;2022-12-29T04:26:27;80.43;;;36.75;;
74523;SDS011;63074;44.696;10.358;2022-12-29T04:28:54;79.32;;;32.28;;
74523;SDS011;63074;44.696;10.358;2022-12-29T04:31:21;84.00;;;33.47;;
74523;SDS011;63074;44.696;10.358;2022-12-29T04:33:47;75.28;;;32.05;;
74523;SDS011;63074;44.696;10.358;2022-12-29T04:36:13;81.95;;;32.78;;
74523;SDS011;63074;44.696;10.358;2022-12-29T04:38:39;81.55;;;33.22;;
74523;SDS011;63074;44.696;10.358;2022-12-29T04:41:05;83.00;;;34.17;;
74523;SDS011;63074;44.696;10.358;2022-12-29T04:43:32;84.80;;;34.97;;
74523;SDS011;63074;44.696;10.358;2022-12-29T04:45:58;79.57;;;34.20;;
74523;SDS011;63074;44.696;10.358;2022-12-29T04:48:24;81.43;;;35.13;;
74523;SDS011;63074;44.696;10.358;2022-12-29T04:50:50;90.72;;;36.95;;
74523;SDS011;63074;44.696;10.358;2022-12-29T04:53:17;85.72;;;35.13;;
74523;SDS011;63074;44.696;10.358;2022-12-29T04:55:43;84.25;;;36.15;;
74523;SDS011;63074;44.696;10.358;2022-12-29T04:58:13;91.22;;;36.28;;
74523;SDS011;63074;44.696;10.358;2022-12-29T05:00:39;88.80;;;36.13;;
74523;SDS011;63074;44.696;10.358;2022-12-29T05:03:05;87.05;;;34.72;;
74523;SDS011;63074;44.696;10.358;2022-12-29T05:05:32;89.47;;;38.10;;
74523;SDS011;63074;44.696;10.358;2022-12-29T05:07:58;86.75;;;33.97;;
74523;SDS011;63074;44.696;10.358;2022-12-29T05:10:24;86.13;;;34.92;;
74523;SDS011;63074;44.696;10.358;2022-12-29T05:12:50;94.72;;;35.83;;
74523;SDS011;63074;44.696;10.358;2022-12-29T05:15:16;81.93;;;34.35;;
74523;SDS011;63074;44.696;10.358;2022-12-29T05:17:43;92.55;;;36.20;;
74523;SDS011;63074;44.696;10.358;2022-12-29T05:20:09;85.78;;;34.92;;
74523;SDS011;63074;44.696;10.358;2022-12-29T05:22:35;87.75;;;34.55;;
74523;SDS011;63074;44.696;10.358;2022-12-29T05:25:02;90.30;;;36.80;;
74523;SDS011;63074;44.696;10.358;2022-12-29T05:27:28;96.55;;;35.53;;
74523;SDS011;63074;44.696;10.358;2022-12-29T05:29:54;88.95;;;35.65;;
74523;SDS011;63074;44.696;10.358;2022-12-29T05:32:21;88.80;;;34.85;;
74523;SDS011;63074;44.696;10.358;2022-12-29T05:34:47;82.13;;;33.28;;
74523;SDS011;63074;44.696;10.358;2022-12-29T05:37:13;90.18;;;35.03;;
74523;SDS011;63074;44.696;10.358;2022-12-29T05:39:39;87.97;;;35.13;;
74523;SDS011;63074;44.696;10.358;2022-12-29T05:42:05;90.03;;;37.13;;
74523;SDS011;63074;44.696;10.358;2022-12-29T05:44:32;97.00;;;36.47;;
74523;SDS011;63074;44.696;10.358;2022-12-29T05:46:58;91.28;;;35.90;;
74523;SDS011;63074;44.696;10.358;2022-12-29T05:49:24;92.68;;;35.53;;
74523;SDS011;63074;44.696;10.358;2022-12-29T05:51:51;97.97;;;36.28;;
74523;SDS011;63074;44.696;10.358;2022-12-29T05:54:17;95.32;;;34.15;;
74523;SDS011;63074;44.696;10.358;2022-12-29T05:56:43;91.15;;;36.45;;
74523;SDS011;63074;44.696;10.358;2022-12-29T05:59:09;92.40;;;34.63;;
74523;SDS011;63074;44.696;10.358;2022-12-29T06:01:35;105.03;;;36.35;;
74523;SDS011;63074;44.696;10.358;2022-12-29T06:04:01;89.10;;;34.80;;
74523;SDS011;63074;44.696;10.358;2022-12-29T06:06:28;94.85;;;35.00;;
74523;SDS011;63074;44.696;10.358;2022-12-29T06:08:54;82.32;;;34.28;;
74523;SDS011;63074;44.696;10.358;2022-12-29T06:11:20;96.45;;;37.67;;
74523;SDS011;63074;44.696;10.358;2022-12-29T06:13:46;86.35;;;34.40;;
74523;SDS011;63074;44.696;10.358;2022-12-29T06:16:13;93.05;;;35.72;;
74523;SDS011;63074;44.696;10.358;2022-12-29T06:18:39;94.57;;;35.13;;
74523;SDS011;63074;44.696;10.358;2022-12-29T06:21:05;92.15;;;35.08;;
74523;SDS011;63074;44.696;10.358;2022-12-29T06:23:32;103.70;;;36.92;;
74523;SDS011;63074;44.696;10.358;2022-12-29T06:25:59;96.50;;;36.10;;
74523;SDS011;63074;44.696;10.358;2022-12-29T06:28:25;91.70;;;34.92;;
74523;SDS011;63074;44.696;10.358;2022-12-29T06:30:53;84.95;;;34.22;;
74523;SDS011;63074;44.696;10.358;2022-12-29T06:33:19;91.95;;;33.85;;
74523;SDS011;63074;44.696;10.358;2022-12-29T06:35:45;103.25;;;35.65;;
74523;SDS011;63074;44.696;10.358;2022-12-29T06:38:12;105.70;;;37.67;;
74523;SDS011;63074;44.696;10.358;2022-12-29T06:40:38;97.82;;;37.00;;
74523;SDS011;63074;44.696;10.358;2022-12-29T06:43:08;100.13;;;37.90;;
74523;SDS011;63074;44.696;10.358;2022-12-29T06:45:34;93.10;;;34.60;;
74523;SDS011;63074;44.696;10.358;2022-12-29T06:48:02;96.88;;;37.47;;
74523;SDS011;63074;44.696;10.358;2022-12-29T06:50:28;89.43;;;35.97;;
74523;SDS011;63074;44.696;10.358;2022-12-29T06:52:56;90.10;;;33.25;;
74523;SDS011;63074;44.696;10.358;2022-12-29T06:55:22;95.53;;;34.30;;
74523;SDS011;63074;44.696;10.358;2022-12-29T06:57:48;91.07;;;33.15;;
74523;SDS011;63074;44.696;10.358;2022-12-29T07:00:14;94.55;;;34.97;;
74523;SDS011;63074;44.696;10.358;2022-12-29T07:02:42;89.28;;;34.28;;
74523;SDS011;63074;44.696;10.358;2022-12-29T07:05:08;86.68;;;33.88;;
74523;SDS011;63074;44.696;10.358;2022-12-29T07:07:35;93.57;;;36.13;;
74523;SDS011;63074;44.696;10.358;2022-12-29T07:10:02;90.32;;;35.40;;
74523;SDS011;63074;44.696;10.358;2022-12-29T07:12:28;87.05;;;34.10;;
74523;SDS011;63074;44.696;10.358;2022-12-29T07:14:55;83.95;;;33.35;;
74523;SDS011;63074;44.696;10.358;2022-12-29T07:17:21;85.82;;;34.70;;
74523;SDS011;63074;44.696;10.358;2022-12-29T07:19:48;82.60;;;33.42;;
74523;SDS011;63074;44.696;10.358;2022-12-29T07:22:15;89.65;;;33.72;;
74523;SDS011;63074;44.696;10.358;2022-12-29T07:24:41;87.75;;;34.45;;
74523;SDS011;63074;44.696;10.358;2022-12-29T07:27:08;93.15;;;34.92;;
74523;SDS011;63074;44.696;10.358;2022-12-29T07:29:36;90.00;;;34.83;;
74523;SDS011;63074;44.696;10.358;2022-12-29T07:32:03;88.95;;;36.63;;
74523;SDS011;63074;44.696;10.358;2022-12-29T07:34:29;88.53;;;34.92;;
74523;SDS011;63074;44.696;10.358;2022-12-29T07:36:55;87.80;;;34.70;;
74523;SDS011;63074;44.696;10.358;2022-12-29T07:39:22;99.22;;;34.80;;
74523;SDS011;63074;44.696;10.358;2022-12-29T07:41:48;90.95;;;34.78;;
74523;SDS011;63074;44.696;10.358;2022-12-29T07:44:15;89.88;;;32.45;;
74523;SDS011;63074;44.696;10.358;2022-12-29T07:46:41;92.68;;;35.97;;
74523;SDS011;63074;44.696;10.358;2022-12-29T07:49:07;101.82;;;38.78;;
74523;SDS011;63074;44.696;10.358;2022-12-29T07:51:33;97.03;;;34.95;;
74523;SDS011;63074;44.696;10.358;2022-12-29T07:54:00;95.40;;;35.05;;
74523;SDS011;63074;44.696;10.358;2022-12-29T07:56:26;100.35;;;37.13;;
74523;SDS011;63074;44.696;10.358;2022-12-29T07:58:52;109.82;;;34.00;;
74523;SDS011;63074;44.696;10.358;2022-12-29T08:01:19;92.97;;;34.88;;
74523;SDS011;63074;44.696;10.358;2022-12-29T08:03:46;98.18;;;36.15;;
74523;SDS011;63074;44.696;10.358;2022-12-29T08:06:12;102.72;;;36.47;;
74523;SDS011;63074;44.696;10.358;2022-12-29T08:08:38;97.55;;;36.13;;
74523;SDS011;63074;44.696;10.358;2022-12-29T08:11:07;100.90;;;35.22;;
74523;SDS011;63074;44.696;10.358;2022-12-29T08:13:33;102.18;;;36.72;;
74523;SDS011;63074;44.696;10.358;2022-12-29T08:15:59;95.15;;;35.00;;
74523;SDS011;63074;44.696;10.358;2022-12-29T08:18:25;95.25;;;36.10;;
74523;SDS011;63074;44.696;10.358;2022-12-29T08:20:52;106.97;;;45.40;;
74523;SDS011;63074;44.696;10.358;2022-12-29T08:23:18;100.75;;;40.88;;
74523;SDS011;63074;44.696;10.358;2022-12-29T08:25:44;94.72;;;38.58;;
74523;SDS011;63074;44.696;10.358;2022-12-29T08:28:10;86.55;;;37.38;;
74523;SDS011;63074;44.696;10.358;2022-12-29T08:30:38;89.63;;;34.97;;
74523;SDS011;63074;44.696;10.358;2022-12-29T08:33:04;93.00;;;35.60;;
74523;SDS011;63074;44.696;10.358;2022-12-29T08:35:30;83.45;;;34.95;;
74523;SDS011;63074;44.696;10.358;2022-12-29T08:37:56;90.90;;;34.22;;
74523;SDS011;63074;44.696;10.358;2022-12-29T08:40:22;86.47;;;34.30;;
74523;SDS011;63074;44.696;10.358;2022-12-29T08:42:49;84.63;;;35.78;;
74523;SDS011;63074;44.696;10.358;2022-12-29T08:45:15;85.32;;;32.88;;
74523;SDS011;63074;44.696;10.358;2022-12-29T08:47:41;74.88;;;30.83;;
74523;SDS011;63074;44.696;10.358;2022-12-29T08:50:08;81.25;;;30.92;;
74523;SDS011;63074;44.696;10.358;2022-12-29T08:52:34;79.38;;;30.42;;
74523;SDS011;63074;44.696;10.358;2022-12-29T08:55:00;75.63;;;29.75;;
74523;SDS011;63074;44.696;10.358;2022-12-29T08:57:26;78.32;;;31.83;;
74523;SDS011;63074;44.696;10.358;2022-12-29T08:59:52;74.38;;;28.70;;
74523;SDS011;63074;44.696;10.358;2022-12-29T09:02:18;77.43;;;29.90;;
74523;SDS011;63074;44.696;10.358;2022-12-29T09:04:45;80.03;;;29.02;;
74523;SDS011;63074;44.696;10.358;2022-12-29T09:07:11;80.40;;;30.50;;
74523;SDS011;63074;44.696;10.358;2022-12-29T09:09:38;75.05;;;30.40;;
74523;SDS011;63074;44.696;10.358;2022-12-29T09:12:04;84.57;;;32.17;;
74523;SDS011;63074;44.696;10.358;2022-12-29T09:14:30;79.10;;;28.20;;
74523;SDS011;63074;44.696;10.358;2022-12-29T09:16:57;77.50;;;29.00;;
74523;SDS011;63074;44.696;10.358;2022-12-29T09:19:41;74.35;;;31.17;;
74523;SDS011;63074;44.696;10.358;2022-12-29T09:22:08;78.72;;;28.92;;
74523;SDS011;63074;44.696;10.358;2022-12-29T09:24:34;80.38;;;31.92;;
74523;SDS011;63074;44.696;10.358;2022-12-29T09:27:00;83.43;;;32.15;;
74523;SDS011;63074;44.696;10.358;2022-12-29T09:29:26;79.30;;;29.63;;
74523;SDS011;63074;44.696;10.358;2022-12-29T09:31:54;81.70;;;30.40;;
74523;SDS011;63074;44.696;10.358;2022-12-29T09:34:20;84.47;;;31.95;;
74523;SDS011;63074;44.696;10.358;2022-12-29T09:36:46;83.22;;;33.55;;
74523;SDS011;63074;44.696;10.358;2022-12-29T09:39:12;94.60;;;32.95;;
74523;SDS011;63074;44.696;10.358;2022-12-29T09:47:17;88.03;;;31.65;;
74523;SDS011;63074;44.696;10.358;2022-12-29T09:52:20;88.07;;;32.83;;
74523;SDS011;63074;44.696;10.358;2022-12-29T09:54:58;92.57;;;32.58;;
74523;SDS011;63074;44.696;10.358;2022-12-29T09:57:36;96.47;;;32.08;;
74523;SDS011;63074;44.696;10.358;2022-12-29T10:07:52;86.63;;;32.60;;
74523;SDS011;63074;44.696;10.358;2022-12-29T10:10:53;94.93;;;32.78;;
74523;SDS011;63074;44.696;10.358;2022-12-29T10:13:50;90.18;;;30.75;;
74523;SDS011;63074;44.696;10.358;2022-12-29T10:24:20;94.15;;;32.22;;
74523;SDS011;63074;44.696;10.358;2022-12-29T10:26:47;92.57;;;31.13;;
74523;SDS011;63074;44.696;10.358;2022-12-29T10:34:45;101.43;;;33.88;;
74523;SDS011;63074;44.696;10.358;2022-12-29T10:37:27;98.03;;;34.63;;
74523;SDS011;63074;44.696;10.358;2022-12-29T10:40:15;97.43;;;33.88;;
74523;SDS011;63074;44.696;10.358;2022-12-29T10:42:45;93.50;;;35.10;;
74523;SDS011;63074;44.696;10.358;2022-12-29T10:45:17;94.22;;;33.55;;
74523;SDS011;63074;44.696;10.358;2022-12-29T10:50:40;85.45;;;32.55;;
74523;SDS011;63074;44.696;10.358;2022-12-29T10:53:08;96.30;;;31.23;;
74523;SDS011;63074;44.696;10.358;2022-12-29T10:55:44;81.60;;;29.27;;
74523;SDS011;63074;44.696;10.358;2022-12-29T10:58:11;93.15;;;31.25;;
74523;SDS011;63074;44.696;10.358;2022-12-29T11:00:39;84.85;;;30.10;;
74523;SDS011;63074;44.696;10.358;2022-12-29T11:11:04;81.03;;;29.35;;
74523;SDS011;63074;44.696;10.358;2022-12-29T11:13:57;81.78;;;30.25;;
74523;SDS011;63074;44.696;10.358;2022-12-29T11:16:32;81.95;;;29.83;;
74523;SDS011;63074;44.696;10.358;2022-12-29T11:18:59;82.75;;;30.25;;
74523;SDS011;63074;44.696;10.358;2022-12-29T11:21:36;82.07;;;29.40;;
74523;SDS011;63074;44.696;10.358;2022-12-29T11:26:50;76.75;;;27.35;;
74523;SDS011;63074;44.696;10.358;2022-12-29T11:31:57;61.42;;;25.33;;
74523;SDS011;63074;44.696;10.358;2022-12-29T11:42:16;78.13;;;27.38;;
74523;SDS011;63074;44.696;10.358;2022-12-29T11:44:49;69.95;;;25.25;;
74523;SDS011;63074;44.696;10.358;2022-12-29T11:47:21;74.15;;;27.90;;
74523;SDS011;63074;44.696;10.358;2022-12-29T11:49:54;73.50;;;28.17;;
74523;SDS011;63074;44.696;10.358;2022-12-29T11:52:24;70.50;;;28.13;;
74523;SDS011;63074;44.696;10.358;2022-12-29T11:54:54;68.88;;;25.77;;
74523;SDS011;63074;44.696;10.358;2022-12-29T11:57:22;74.85;;;27.75;;
74523;SDS011;63074;44.696;10.358;2022-12-29T11:59:51;70.32;;;27.00;;
74523;SDS011;63074;44.696;10.358;2022-12-29T12:05:41;67.13;;;26.33;;
74523;SDS011;63074;44.696;10.358;2022-12-29T12:07:59;64.65;;;25.35;;
74523;SDS011;63074;44.696;10.358;2022-12-29T12:10:34;64.88;;;23.65;;
74523;SDS011;63074;44.696;10.358;2022-12-29T12:16:21;58.88;;;24.95;;
74523;SDS011;63074;44.696;10.358;2022-12-29T12:18:53;61.45;;;24.40;;
74523;SDS011;63074;44.696;10.358;2022-12-29T12:21:48;69.30;;;28.25;;
74523;SDS011;63074;44.696;10.358;2022-12-29T12:24:22;78.28;;;27.88;;
74523;SDS011;63074;44.696;10.358;2022-12-29T12:32:39;64.60;;;24.30;;
74523;SDS011;63074;44.696;10.358;2022-12-29T12:35:15;61.38;;;24.40;;
74523;SDS011;63074;44.696;10.358;2022-12-29T12:40:28;62.65;;;24.20;;
74523;SDS011;63074;44.696;10.358;2022-12-29T12:45:55;68.85;;;26.15;;
74523;SDS011;63074;44.696;10.358;2022-12-29T12:48:51;70.32;;;26.80;;
74523;SDS011;63074;44.696;10.358;2022-12-29T13:20:19;69.03;;;27.02;;
74523;SDS011;63074;44.696;10.358;2022-12-29T13:22:55;69.60;;;24.63;;
74523;SDS011;63074;44.696;10.358;2022-12-29T13:28:02;69.93;;;25.15;;
74523;SDS011;63074;44.696;10.358;2022-12-29T13:30:48;64.72;;;23.05;;
74523;SDS011;63074;44.696;10.358;2022-12-29T13:33:53;57.00;;;22.40;;
74523;SDS011;63074;44.696;10.358;2022-12-29T13:41:43;50.58;;;19.90;;
74523;SDS011;63074;44.696;10.358;2022-12-29T13:44:16;58.28;;;22.10;;
74523;SDS011;63074;44.696;10.358;2022-12-29T13:46:49;58.40;;;22.75;;
74523;SDS011;63074;44.696;10.358;2022-12-29T13:49:20;65.82;;;24.08;;
74523;SDS011;63074;44.696;10.358;2022-12-29T13:59:59;58.50;;;23.38;;
74523;SDS011;63074;44.696;10.358;2022-12-29T14:03:04;59.63;;;23.05;;
74523;SDS011;63074;44.696;10.358;2022-12-29T14:05:45;60.70;;;23.45;;
74523;SDS011;63074;44.696;10.358;2022-12-29T14:08:46;61.47;;;24.13;;
74523;SDS011;63074;44.696;10.358;2022-12-29T14:11:15;59.90;;;23.90;;
74523;SDS011;63074;44.696;10.358;2022-12-29T14:13:45;57.65;;;22.67;;
74523;SDS011;63074;44.696;10.358;2022-12-29T14:16:26;53.97;;;21.92;;
74523;SDS011;63074;44.696;10.358;2022-12-29T14:18:55;59.15;;;21.95;;
74523;SDS011;63074;44.696;10.358;2022-12-29T14:21:29;58.00;;;23.05;;
74523;SDS011;63074;44.696;10.358;2022-12-29T14:24:19;59.03;;;23.30;;
74523;SDS011;63074;44.696;10.358;2022-12-29T14:26:57;62.80;;;25.30;;
74523;SDS011;63074;44.696;10.358;2022-12-29T14:31:50;65.43;;;24.95;;
74523;SDS011;63074;44.696;10.358;2022-12-29T14:36:54;64.38;;;24.65;;
74523;SDS011;63074;44.696;10.358;2022-12-29T14:39:38;60.05;;;24.17;;
74523;SDS011;63074;44.696;10.358;2022-12-29T14:44:56;63.58;;;25.58;;
74523;SDS011;63074;44.696;10.358;2022-12-29T14:50:42;60.38;;;22.33;;
74523;SDS011;63074;44.696;10.358;2022-12-29T14:52:48;59.95;;;22.75;;
74523;SDS011;63074;44.696;10.358;2022-12-29T14:58:06;51.15;;;21.38;;
74523;SDS011;63074;44.696;10.358;2022-12-29T15:00:56;54.85;;;20.92;;
74523;SDS011;63074;44.696;10.358;2022-12-29T15:03:32;49.60;;;19.33;;
74523;SDS011;63074;44.696;10.358;2022-12-29T15:08:58;50.20;;;20.45;;
74523;SDS011;63074;44.696;10.358;2022-12-29T15:11:48;49.22;;;20.00;;
74523;SDS011;63074;44.696;10.358;2022-12-29T15:14:28;48.70;;;20.30;;
74523;SDS011;63074;44.696;10.358;2022-12-29T15:16:54;52.88;;;22.77;;
74523;SDS011;63074;44.696;10.358;2022-12-29T15:19:21;59.42;;;23.08;;
74523;SDS011;63074;44.696;10.358;2022-12-29T15:21:50;52.35;;;22.70;;
74523;SDS011;63074;44.696;10.358;2022-12-29T15:24:18;57.28;;;22.70;;
74523;SDS011;63074;44.696;10.358;2022-12-29T15:26:45;58.17;;;21.70;;
74523;SDS011;63074;44.696;10.358;2022-12-29T15:34:41;55.38;;;23.65;;
74523;SDS011;63074;44.696;10.358;2022-12-29T15:37:08;63.63;;;24.58;;
74523;SDS011;63074;44.696;10.358;2022-12-29T15:39:35;60.53;;;24.95;;
74523;SDS011;63074;44.696;10.358;2022-12-29T15:44:42;63.25;;;23.48;;
74523;SDS011;63074;44.696;10.358;2022-12-29T15:49:42;60.47;;;24.48;;
74523;SDS011;63074;44.696;10.358;2022-12-29T15:52:10;61.35;;;25.45;;
74523;SDS011;63074;44.696;10.358;2022-12-29T15:54:42;58.70;;;24.10;;
74523;SDS011;63074;44.696;10.358;2022-12-29T15:57:36;67.15;;;25.00;;
74523;SDS011;63074;44.696;10.358;2022-12-29T16:03:12;61.70;;;25.60;;
74523;SDS011;63074;44.696;10.358;2022-12-29T16:05:40;60.55;;;25.52;;
74523;SDS011;63074;44.696;10.358;2022-12-29T16:08:22;56.20;;;25.00;;
74523;SDS011;63074;44.696;10.358;2022-12-29T16:11:03;62.63;;;24.80;;
74523;SDS011;63074;44.696;10.358;2022-12-29T16:16:18;59.92;;;24.35;;
74523;SDS011;63074;44.696;10.358;2022-12-29T16:18:50;66.00;;;27.02;;
74523;SDS011;63074;44.696;10.358;2022-12-29T16:21:19;56.60;;;25.80;;
74523;SDS011;63074;44.696;10.358;2022-12-29T16:23:53;62.83;;;24.52;;
74523;SDS011;63074;44.696;10.358;2022-12-29T16:26:23;60.55;;;27.42;;
74523;SDS011;63074;44.696;10.358;2022-12-29T16:28:51;58.75;;;23.48;;
74523;SDS011;63074;44.696;10.358;2022-12-29T16:31:24;59.28;;;21.92;;
74523;SDS011;63074;44.696;10.358;2022-12-29T16:33:56;52.60;;;24.27;;
74523;SDS011;63074;44.696;10.358;2022-12-29T16:39:16;60.50;;;25.60;;
74523;SDS011;63074;44.696;10.358;2022-12-29T16:41:53;49.47;;;21.35;;
74523;SDS011;63074;44.696;10.358;2022-12-29T16:49:25;59.35;;;24.90;;
74523;SDS011;63074;44.696;10.358;2022-12-29T16:51:53;64.35;;;24.48;;
74523;SDS011;63074;44.696;10.358;2022-12-29T16:54:24;58.80;;;22.60;;
74523;SDS011;63074;44.696;10.358;2022-12-29T16:57:00;56.83;;;22.73;;
74523;SDS011;63074;44.696;10.358;2022-12-29T16:59:33;56.80;;;22.88;;
74523;SDS011;63074;44.696;10.358;2022-12-29T17:04:36;51.70;;;22.48;;
74523;SDS011;63074;44.696;10.358;2022-12-29T17:07:02;58.00;;;23.02;;
74523;SDS011;63074;44.696;10.358;2022-12-29T17:09:33;54.15;;;23.92;;
74523;SDS011;63074;44.696;10.358;2022-12-29T17:12:00;58.78;;;26.42;;
74523;SDS011;63074;44.696;10.358;2022-12-29T17:14:43;59.05;;;24.85;;
74523;SDS011;63074;44.696;10.358;2022-12-29T17:17:13;57.83;;;26.25;;
74523;SDS011;63074;44.696;10.358;2022-12-29T17:19:42;58.72;;;26.77;;
74523;SDS011;63074;44.696;10.358;2022-12-29T17:22:29;54.97;;;24.35;;
74523;SDS011;63074;44.696;10.358;2022-12-29T17:24:56;58.63;;;25.55;;
74523;SDS011;63074;44.696;10.358;2022-12-29T17:29:50;57.35;;;25.50;;
74523;SDS011;63074;44.696;10.358;2022-12-29T17:32:19;63.17;;;26.60;;
74523;SDS011;63074;44.696;10.358;2022-12-29T17:34:47;58.83;;;25.33;;
74523;SDS011;63074;44.696;10.358;2022-12-29T17:37:31;66.15;;;29.27;;
74523;SDS011;63074;44.696;10.358;2022-12-29T17:39:59;65.40;;;28.55;;
74523;SDS011;63074;44.696;10.358;2022-12-29T17:42:27;64.28;;;26.48;;
74523;SDS011;63074;44.696;10.358;2022-12-29T17:44:56;60.75;;;25.92;;
74523;SDS011;63074;44.696;10.358;2022-12-29T17:47:23;72.78;;;27.50;;
74523;SDS011;63074;44.696;10.358;2022-12-29T17:49:50;69.50;;;26.90;;
74523;SDS011;63074;44.696;10.358;2022-12-29T17:52:16;70.20;;;27.77;;